createdAt,value
2022-11-18T00:01:36.467Z,16.40
2022-11-18T00:04:07.425Z,16.50
2022-11-18T00:06:38.070Z,17.60
2022-11-18T00:09:08.601Z,20.20
2022-11-18T00:11:57.033Z,19.80
2022-11-18T00:14:27.758Z,19.30
2022-11-18T00:16:59.797Z,21.00
2022-11-18T00:19:30.783Z,19.90
2022-11-18T00:22:01.436Z,17.00
2022-11-18T00:24:32.238Z,20.90
2022-11-18T00:27:02.764Z,18.60
2022-11-18T00:29:33.410Z,20.40
2022-11-18T00:32:04.072Z,17.50
2022-11-18T00:34:34.524Z,17.60
2022-11-18T00:37:05.526Z,17.60
2022-11-18T00:39:37.729Z,17.60
2022-11-18T00:42:26.824Z,18.80
2022-11-18T00:44:57.658Z,20.00
2022-11-18T00:47:28.125Z,17.50
2022-11-18T00:49:58.922Z,16.20
2022-11-18T00:52:29.751Z,17.90
2022-11-18T00:55:00.722Z,18.60
2022-11-18T00:57:31.369Z,16.00
2022-11-18T01:00:02.061Z,19.90
2022-11-18T01:02:32.784Z,19.80
2022-11-18T01:05:03.325Z,22.40
2022-11-18T01:07:33.954Z,21.00
2022-11-18T01:10:04.791Z,25.20
2022-11-18T01:12:54.501Z,20.00
2022-11-18T01:15:25.247Z,22.20
2022-11-18T01:17:56.488Z,16.60
2022-11-18T01:20:27.061Z,17.80
2022-11-18T01:22:57.807Z,17.20
2022-11-18T01:25:28.578Z,15.00
2022-11-18T01:27:59.364Z,17.20
2022-11-18T01:30:30.414Z,14.50
2022-11-18T01:33:00.933Z,16.40
2022-11-18T01:35:35.295Z,17.60
2022-11-18T01:38:06.720Z,15.00
2022-11-18T01:40:37.829Z,14.10
2022-11-18T01:43:12.992Z,15.60
2022-11-18T01:45:44.147Z,14.50
2022-11-18T01:48:20.609Z,16.20
2022-11-18T01:50:54.403Z,16.30
2022-11-18T01:53:27.479Z,18.80
2022-11-18T01:55:59.512Z,16.60
2022-11-18T01:58:32.254Z,16.10
2022-11-18T02:01:03.725Z,18.00
2022-11-18T02:03:34.437Z,17.00
2022-11-18T02:06:06.315Z,17.80
2022-11-18T02:08:39.491Z,21.00
2022-11-18T02:11:33.434Z,18.80
2022-11-18T02:14:05.402Z,20.10
2022-11-18T02:16:40.085Z,22.40
2022-11-18T02:19:16.755Z,14.50
2022-11-18T02:21:54.803Z,19.10
2022-11-18T02:24:32.914Z,18.50
2022-11-18T02:27:21.459Z,17.70
2022-11-18T02:29:54.183Z,18.60
2022-11-18T02:32:26.583Z,18.90
2022-11-18T02:35:01.745Z,18.00
2022-11-18T02:37:34.926Z,20.20
2022-11-18T02:40:09.058Z,21.10
2022-11-18T02:42:41.881Z,18.90
2022-11-18T02:45:16.771Z,22.80
2022-11-18T02:47:49.140Z,22.10
2022-11-18T02:50:22.640Z,21.10
2022-11-18T02:52:54.854Z,24.80
2022-11-18T02:55:27.173Z,18.00
2022-11-18T02:57:58.455Z,22.50
2022-11-18T03:00:29.480Z,26.70
2022-11-18T03:03:00.504Z,21.80
2022-11-18T03:05:38.001Z,21.40
2022-11-18T03:08:10.137Z,24.00
2022-11-18T03:10:44.446Z,23.00
2022-11-18T03:13:20.053Z,20.10
2022-11-18T03:15:53.729Z,19.80
2022-11-18T03:18:28.936Z,23.80
2022-11-18T03:21:02.674Z,23.90
2022-11-18T03:23:35.644Z,23.90
2022-11-18T03:26:08.541Z,25.50
2022-11-18T03:28:42.064Z,18.30
2022-11-18T03:31:15.663Z,21.00
2022-11-18T03:33:49.036Z,23.20
2022-11-18T03:36:22.255Z,17.80
2022-11-18T03:41:22.981Z,19.50
2022-11-18T03:43:58.265Z,21.00
2022-11-18T03:46:32.015Z,17.20
2022-11-18T03:49:02.649Z,21.00
2022-11-18T03:51:35.948Z,21.00
2022-11-18T03:54:10.163Z,18.80
2022-11-18T03:56:42.426Z,17.40
2022-11-18T03:59:14.893Z,18.70
2022-11-18T04:01:47.196Z,24.80
2022-11-18T04:04:17.801Z,20.10
2022-11-18T04:06:49.651Z,18.30
2022-11-18T04:09:22.433Z,21.30
2022-11-18T04:12:06.026Z,20.30
2022-11-18T04:17:08.988Z,18.70
2022-11-18T04:19:41.175Z,20.10
2022-11-18T04:22:12.284Z,22.20
2022-11-18T04:24:42.726Z,20.40
2022-11-18T04:27:13.996Z,20.50
2022-11-18T04:29:44.615Z,22.70
2022-11-18T04:32:15.413Z,22.30
2022-11-18T04:34:45.979Z,25.10
2022-11-18T04:37:16.783Z,19.40
2022-11-18T04:39:47.410Z,19.90
2022-11-18T04:42:18.142Z,22.30
2022-11-18T04:44:48.784Z,21.30
2022-11-18T04:47:19.255Z,20.70
2022-11-18T04:49:50.034Z,21.20
2022-11-18T04:52:20.811Z,19.10
2022-11-18T04:54:51.397Z,22.90
2022-11-18T04:57:22.234Z,22.50
2022-11-18T04:59:52.864Z,19.40
2022-11-18T05:02:23.399Z,17.60
2022-11-18T05:04:54.127Z,18.50
2022-11-18T05:07:24.813Z,20.00
2022-11-18T05:09:55.489Z,18.60
2022-11-18T05:12:43.943Z,18.50
2022-11-18T05:15:14.733Z,18.80
2022-11-18T05:17:45.274Z,17.60
2022-11-18T05:20:16.244Z,20.40
2022-11-18T05:22:47.271Z,21.50
2022-11-18T05:25:18.766Z,19.70
2022-11-18T05:27:49.437Z,17.10
2022-11-18T05:30:20.542Z,17.90
2022-11-18T05:32:51.048Z,20.90
2022-11-18T05:35:21.480Z,23.20
2022-11-18T05:37:51.856Z,20.10
2022-11-18T05:40:22.824Z,20.60
2022-11-18T05:43:10.694Z,16.80
2022-11-18T05:45:42.212Z,18.70
2022-11-18T05:48:12.649Z,16.50
2022-11-18T05:50:43.403Z,18.00
2022-11-18T05:53:14.320Z,18.60
2022-11-18T05:55:49.555Z,17.30
2022-11-18T05:58:19.976Z,17.90
2022-11-18T06:00:51.932Z,18.60
2022-11-18T06:03:30.477Z,17.40
2022-11-18T06:06:03.102Z,16.60
2022-11-18T06:08:35.468Z,18.20
2022-11-18T06:11:07.055Z,19.60
2022-11-18T06:13:41.062Z,21.00
2022-11-18T06:16:13.639Z,20.40
2022-11-18T06:18:43.934Z,24.00
2022-11-18T06:21:14.708Z,16.80
2022-11-18T06:23:45.525Z,20.20
2022-11-18T06:26:16.803Z,21.30
2022-11-18T06:28:48.228Z,19.70
2022-11-18T06:31:18.937Z,21.70
2022-11-18T06:33:49.382Z,21.90
2022-11-18T06:36:19.912Z,20.30
2022-11-18T06:38:50.344Z,24.00
2022-11-18T06:41:20.916Z,22.80
2022-11-18T06:43:51.374Z,22.60
2022-11-18T06:46:39.347Z,20.10
2022-11-18T06:49:10.271Z,22.60
2022-11-18T06:51:41.229Z,22.20
2022-11-18T06:54:11.836Z,19.30
2022-11-18T06:56:42.780Z,18.90
2022-11-18T06:59:13.541Z,20.70
2022-11-18T07:01:44.270Z,22.40
2022-11-18T07:04:14.952Z,21.40
2022-11-18T07:06:45.503Z,18.10
2022-11-18T07:09:16.216Z,19.10
2022-11-18T07:11:47.067Z,25.00
2022-11-18T07:14:17.964Z,20.00
2022-11-18T07:16:48.743Z,19.00
2022-11-18T07:19:19.591Z,22.50
2022-11-18T07:21:51.242Z,20.90
2022-11-18T07:24:21.692Z,18.50
2022-11-18T07:26:54.280Z,17.20
2022-11-18T07:29:24.973Z,19.40
2022-11-18T07:31:55.639Z,20.70
2022-11-18T07:34:26.070Z,18.20
2022-11-18T07:36:56.650Z,20.90
2022-11-18T07:39:27.038Z,17.20
2022-11-18T07:41:57.501Z,20.10
2022-11-18T07:44:28.142Z,20.10
2022-11-18T07:46:58.770Z,17.80
2022-11-18T07:49:29.201Z,17.50
2022-11-18T07:51:59.760Z,17.90
2022-11-18T07:54:30.261Z,18.10
2022-11-18T07:57:00.976Z,16.20
2022-11-18T07:59:31.366Z,17.00
2022-11-18T08:02:02.109Z,18.70
2022-11-18T08:04:32.678Z,16.60
2022-11-18T08:07:03.166Z,20.70
2022-11-18T08:09:33.810Z,18.70
2022-11-18T08:12:04.315Z,16.70
2022-11-18T08:14:35.308Z,19.70
2022-11-18T08:17:05.834Z,19.40
2022-11-18T08:19:36.610Z,18.00
2022-11-18T08:22:07.227Z,18.40
2022-11-18T08:24:37.713Z,16.40
2022-11-18T08:27:08.141Z,17.50
2022-11-18T08:29:38.842Z,16.40
2022-11-18T08:32:09.507Z,17.30
2022-11-18T08:34:40.410Z,16.50
2022-11-18T08:37:10.770Z,16.80
2022-11-18T08:39:41.523Z,17.70
2022-11-18T08:42:12.127Z,18.30
2022-11-18T08:44:42.975Z,17.50
2022-11-18T08:47:13.285Z,17.80
2022-11-18T08:49:44.286Z,19.00
2022-11-18T08:52:14.565Z,19.00
2022-11-18T08:54:45.550Z,20.10
2022-11-18T08:57:16.130Z,18.10
2022-11-18T08:59:47.024Z,19.90
2022-11-18T09:02:18.003Z,20.90
2022-11-18T09:04:49.441Z,17.50
2022-11-18T09:07:20.071Z,19.10
2022-11-18T09:09:51.192Z,16.60
2022-11-18T09:12:21.443Z,16.80
2022-11-18T09:15:13.052Z,15.50
2022-11-18T09:17:42.876Z,15.70
2022-11-18T09:20:20.975Z,19.10
2022-11-18T09:22:51.211Z,19.70
2022-11-18T09:25:22.445Z,18.20
2022-11-18T09:27:52.778Z,16.40
2022-11-18T09:30:23.419Z,19.80
2022-11-18T09:32:53.727Z,17.10
2022-11-18T09:35:24.562Z,16.90
2022-11-18T09:37:55.301Z,19.00
2022-11-18T09:40:26.148Z,18.10
2022-11-18T09:43:00.759Z,19.20
2022-11-18T09:45:34.504Z,17.30
2022-11-18T09:48:13.233Z,19.00
2022-11-18T09:50:51.354Z,17.10
2022-11-18T09:53:22.753Z,18.10
2022-11-18T09:55:53.964Z,18.40
2022-11-18T09:58:32.588Z,18.20
2022-11-18T10:01:03.433Z,17.60
2022-11-18T10:03:34.368Z,16.50
2022-11-18T10:06:19.163Z,16.10
2022-11-18T10:08:59.502Z,18.40
2022-11-18T10:11:34.245Z,18.30
2022-11-18T10:14:16.211Z,17.80
2022-11-18T10:16:53.878Z,17.20
2022-11-18T10:19:31.503Z,14.90
2022-11-18T10:22:16.719Z,18.80
2022-11-18T10:24:52.056Z,19.50
2022-11-18T10:27:23.276Z,18.70
2022-11-18T10:29:56.557Z,18.10
2022-11-18T10:32:27.231Z,19.40
2022-11-18T10:34:58.644Z,19.10
2022-11-18T10:38:00.271Z,17.70
2022-11-18T10:40:27.170Z,20.70
2022-11-18T10:42:57.971Z,17.60
2022-11-18T10:45:29.533Z,17.50
2022-11-18T10:48:08.227Z,19.60
2022-11-18T10:50:39.651Z,18.10
2022-11-18T10:53:25.966Z,19.20
2022-11-18T10:56:00.730Z,18.70
2022-11-18T10:58:32.293Z,16.50
2022-11-18T11:01:07.940Z,17.20
2022-11-18T11:03:39.378Z,20.50
2022-11-18T11:06:29.923Z,18.70
2022-11-18T11:09:01.750Z,17.20
2022-11-18T11:11:33.219Z,18.70
2022-11-18T11:14:14.676Z,21.00
2022-11-18T11:16:48.261Z,17.00
2022-11-18T11:19:21.155Z,21.10
2022-11-18T11:21:51.951Z,21.90
2022-11-18T11:24:25.288Z,25.10
2022-11-18T11:30:13.119Z,28.00
2022-11-18T11:32:51.085Z,24.10
2022-11-18T11:35:24.115Z,22.80
2022-11-18T11:37:57.008Z,28.20
2022-11-18T11:40:30.786Z,24.70
2022-11-18T11:43:07.270Z,29.10
2022-11-18T11:45:42.411Z,30.30
2022-11-18T11:48:19.796Z,28.60
2022-11-18T11:51:04.398Z,29.10
2022-11-18T11:54:04.069Z,31.80
2022-11-18T11:56:36.434Z,30.30
2022-11-18T11:59:12.138Z,27.20
2022-11-18T12:01:48.927Z,29.80
2022-11-18T12:04:26.296Z,28.10
2022-11-18T12:06:57.453Z,27.30
2022-11-18T12:09:35.559Z,26.50
2022-11-18T12:12:30.498Z,27.50
2022-11-18T12:15:04.710Z,28.20
2022-11-18T12:17:39.803Z,28.90
2022-11-18T12:20:23.911Z,31.60
2022-11-18T12:23:11.939Z,27.50
2022-11-18T12:25:52.553Z,24.80
2022-11-18T12:28:27.148Z,24.90
2022-11-18T12:31:23.574Z,32.10
2022-11-18T12:33:54.851Z,33.40
2022-11-18T12:36:29.482Z,31.70
2022-11-18T12:39:00.277Z,30.00
2022-11-18T12:44:41.117Z,35.00
2022-11-18T12:47:13.053Z,29.80
2022-11-18T12:50:03.204Z,29.90
2022-11-18T12:52:49.603Z,31.00
2022-11-18T12:55:22.851Z,31.00
2022-11-18T13:00:31.441Z,31.00
2022-11-18T13:03:03.495Z,28.50
2022-11-18T13:05:34.798Z,29.50
2022-11-18T13:08:15.872Z,29.90
2022-11-18T13:10:55.929Z,31.10
2022-11-18T13:13:28.641Z,25.90
2022-11-18T13:16:18.533Z,32.40
2022-11-18T13:18:52.792Z,27.20
2022-11-18T13:21:42.871Z,29.90
2022-11-18T13:24:17.870Z,29.40
2022-11-18T13:26:49.322Z,27.50
2022-11-18T13:29:23.422Z,29.00
2022-11-18T13:31:58.587Z,31.80
2022-11-18T13:34:30.113Z,33.70
2022-11-18T13:37:01.820Z,31.70
2022-11-18T13:39:33.227Z,31.60
2022-11-18T13:42:05.151Z,27.70
2022-11-18T13:44:36.577Z,35.70
2022-11-18T13:47:10.825Z,31.90
2022-11-18T13:49:50.590Z,28.70
2022-11-18T13:52:23.906Z,28.70
2022-11-18T13:54:55.893Z,29.10
2022-11-18T13:57:27.269Z,31.70
2022-11-18T14:00:02.542Z,30.60
2022-11-18T14:02:39.528Z,30.90
2022-11-18T14:05:21.558Z,25.00
2022-11-18T14:08:00.527Z,31.70
2022-11-18T14:10:39.241Z,28.70
2022-11-18T14:13:17.894Z,27.60
2022-11-18T14:15:48.610Z,30.10
2022-11-18T14:18:32.766Z,27.30
2022-11-18T14:21:04.025Z,29.20
2022-11-18T14:23:36.589Z,28.20
2022-11-18T14:26:08.434Z,29.70
2022-11-18T14:28:39.179Z,33.90
2022-11-18T14:31:23.323Z,30.70
2022-11-18T14:34:07.522Z,27.20
2022-11-18T14:36:41.040Z,28.30
2022-11-18T14:39:26.374Z,26.30
2022-11-18T14:41:58.508Z,26.80
2022-11-18T14:44:30.827Z,25.10
2022-11-18T14:47:03.114Z,29.30
2022-11-18T14:49:34.411Z,26.60
2022-11-18T14:52:05.121Z,29.00
2022-11-18T14:54:36.134Z,28.10
2022-11-18T14:57:06.947Z,26.10
2022-11-18T14:59:37.632Z,28.80
2022-11-18T15:02:13.924Z,25.80
2022-11-18T15:04:44.650Z,29.70
2022-11-18T15:07:22.821Z,24.50
2022-11-18T15:09:53.985Z,28.30
2022-11-18T15:12:24.508Z,29.70
2022-11-18T15:14:55.037Z,31.60
2022-11-18T15:17:25.881Z,29.80
2022-11-18T15:19:57.115Z,28.10
2022-11-18T15:22:27.754Z,29.00
2022-11-18T15:24:58.531Z,31.30
2022-11-18T15:27:29.119Z,27.10
2022-11-18T15:30:01.813Z,31.30
2022-11-18T15:32:32.635Z,30.40
2022-11-18T15:35:03.461Z,29.80
2022-11-18T15:37:34.297Z,32.90
2022-11-18T15:40:05.027Z,33.00
2022-11-18T15:42:45.020Z,31.70
2022-11-18T15:45:20.423Z,32.50
2022-11-18T15:47:52.690Z,43.10
2022-11-18T15:50:23.224Z,35.90
2022-11-18T15:52:55.505Z,34.00
2022-11-18T15:55:26.136Z,34.50
2022-11-18T15:57:56.754Z,28.50
2022-11-18T16:00:27.556Z,38.20
2022-11-18T16:02:58.117Z,32.60
2022-11-18T16:05:28.805Z,35.70
2022-11-18T16:08:00.097Z,34.70
2022-11-18T16:10:49.443Z,32.30
2022-11-18T16:13:22.957Z,34.40
2022-11-18T16:15:53.944Z,36.40
2022-11-18T16:18:25.365Z,30.90
2022-11-18T16:21:00.110Z,28.50
2022-11-18T16:23:30.904Z,32.50
2022-11-18T16:26:03.661Z,30.80
2022-11-18T16:28:34.969Z,30.50
2022-11-18T16:31:22.159Z,28.00
2022-11-18T16:33:54.231Z,26.50
2022-11-18T16:36:28.482Z,29.90
2022-11-18T16:39:00.314Z,27.60
2022-11-18T16:41:35.073Z,29.50
2022-11-18T16:44:08.476Z,30.40
2022-11-18T16:46:40.972Z,33.10
2022-11-18T16:49:14.414Z,29.10
2022-11-18T16:54:34.958Z,29.00
2022-11-18T16:57:07.618Z,26.60
2022-11-18T16:59:41.306Z,31.20
2022-11-18T17:02:21.617Z,31.80
2022-11-18T17:04:54.821Z,33.00
2022-11-18T17:07:38.520Z,33.50
2022-11-18T17:10:22.470Z,27.70
2022-11-18T17:12:58.056Z,25.90
2022-11-18T17:15:35.467Z,26.80
2022-11-18T17:18:11.755Z,25.40
2022-11-18T17:20:46.954Z,27.80
2022-11-18T17:23:18.567Z,27.10
2022-11-18T17:25:52.414Z,33.10
2022-11-18T17:28:29.300Z,31.00
2022-11-18T17:31:06.884Z,28.50
2022-11-18T17:33:39.775Z,25.40
2022-11-18T17:36:13.654Z,28.10
2022-11-18T17:38:45.841Z,29.80
2022-11-18T17:41:31.883Z,28.60
2022-11-18T17:44:03.700Z,26.50
2022-11-18T17:46:37.991Z,29.30
2022-11-18T17:49:12.531Z,25.50
2022-11-18T17:51:43.271Z,25.60
2022-11-18T17:54:14.610Z,30.50
2022-11-18T17:56:45.169Z,26.90
2022-11-18T17:59:17.534Z,23.80
2022-11-18T18:01:49.864Z,27.10
2022-11-18T18:04:22.619Z,28.10
2022-11-18T18:06:53.762Z,27.50
2022-11-18T18:09:30.635Z,26.60
2022-11-18T18:12:22.042Z,29.30
2022-11-18T18:14:52.691Z,30.90
2022-11-18T18:17:23.157Z,26.90
2022-11-18T18:19:53.726Z,31.30
2022-11-18T18:22:24.415Z,26.00
2022-11-18T18:24:55.062Z,38.70
2022-11-18T18:27:25.670Z,31.30
2022-11-18T18:29:56.956Z,27.60
2022-11-18T18:32:27.400Z,31.70
2022-11-18T18:35:00.226Z,30.90
2022-11-18T18:37:30.698Z,28.50
2022-11-18T18:40:01.362Z,26.90
2022-11-18T18:42:31.986Z,25.70
2022-11-18T18:45:20.075Z,24.90
2022-11-18T18:47:51.482Z,24.80
2022-11-18T18:50:26.612Z,28.10
2022-11-18T18:53:00.261Z,24.60
2022-11-18T18:55:32.013Z,26.60
2022-11-18T18:58:03.151Z,24.00
2022-11-18T19:00:33.939Z,25.00
2022-11-18T19:03:04.472Z,20.60
2022-11-18T19:06:12.277Z,24.50
2022-11-18T19:08:27.504Z,23.50
2022-11-18T19:10:58.628Z,26.40
2022-11-18T19:13:30.795Z,27.20
2022-11-18T19:16:05.606Z,29.90
2022-11-18T19:18:36.793Z,23.90
2022-11-18T19:21:11.308Z,25.60
2022-11-18T19:23:41.820Z,22.40
2022-11-18T19:26:13.010Z,24.40
2022-11-18T19:28:44.115Z,24.20
2022-11-18T19:31:16.018Z,22.90
2022-11-18T19:33:46.598Z,23.00
2022-11-18T19:36:18.009Z,25.00
2022-11-18T19:38:50.108Z,23.00
2022-11-18T19:41:21.665Z,24.70
2022-11-18T19:43:52.501Z,23.60
2022-11-18T19:46:25.489Z,25.90
2022-11-18T19:48:59.599Z,27.60
2022-11-18T19:51:31.298Z,23.00
2022-11-18T19:54:02.082Z,27.60
2022-11-18T19:56:33.023Z,26.10
2022-11-18T19:59:03.557Z,26.70
2022-11-18T20:01:34.338Z,28.00
2022-11-18T20:04:05.953Z,25.90
2022-11-18T20:06:37.392Z,27.10
2022-11-18T20:09:09.199Z,27.00
2022-11-18T20:11:40.139Z,24.80
2022-11-18T20:14:12.705Z,25.30
2022-11-18T20:16:43.388Z,21.90
2022-11-18T20:19:14.233Z,23.30
2022-11-18T20:21:45.007Z,25.30
2022-11-18T20:24:16.964Z,24.70
2022-11-18T20:26:49.085Z,24.80
2022-11-18T20:29:20.345Z,24.30
2022-11-18T20:31:51.511Z,26.00
2022-11-18T20:34:22.313Z,24.60
2022-11-18T20:36:53.400Z,23.30
2022-11-18T20:39:24.083Z,21.10
2022-11-18T20:42:12.428Z,26.50
2022-11-18T20:44:43.679Z,24.90
2022-11-18T20:47:14.366Z,20.70
2022-11-18T20:49:45.038Z,23.80
2022-11-18T20:52:15.573Z,20.30
2022-11-18T20:54:47.017Z,20.70
2022-11-18T20:57:17.601Z,21.50
2022-11-18T20:59:48.389Z,22.80
2022-11-18T21:02:18.881Z,21.80
2022-11-18T21:04:52.820Z,20.60
2022-11-18T21:07:23.543Z,19.30
2022-11-18T21:09:54.691Z,19.20
2022-11-18T21:12:25.021Z,19.30
2022-11-18T21:14:55.681Z,22.80
2022-11-18T21:17:26.174Z,19.10
2022-11-18T21:20:16.878Z,18.20
2022-11-18T21:22:47.346Z,22.70
2022-11-18T21:25:18.242Z,19.00
2022-11-18T21:27:48.986Z,19.00
2022-11-18T21:30:20.548Z,20.70
2022-11-18T21:32:51.470Z,20.10
2022-11-18T21:35:22.613Z,21.40
2022-11-18T21:37:53.033Z,23.40
2022-11-18T21:40:23.970Z,21.70
2022-11-18T21:42:54.503Z,20.60
2022-11-18T21:45:25.202Z,22.70
2022-11-18T21:47:55.596Z,21.10
2022-11-18T21:50:27.467Z,17.50
2022-11-18T21:52:57.942Z,23.00
2022-11-18T21:55:29.291Z,20.30
2022-11-18T21:58:02.978Z,16.40
2022-11-18T22:00:35.260Z,21.30
2022-11-18T22:03:06.408Z,24.60
2022-11-18T22:05:37.655Z,24.00
2022-11-18T22:08:11.312Z,22.80
2022-11-18T22:10:45.994Z,22.90
2022-11-18T22:13:16.454Z,22.50
2022-11-18T22:15:47.600Z,21.80
2022-11-18T22:18:18.187Z,21.40
2022-11-18T22:20:49.065Z,21.20
2022-11-18T22:23:21.863Z,22.40
2022-11-18T22:25:58.278Z,21.30
2022-11-18T22:28:28.714Z,22.60
2022-11-18T22:31:04.960Z,23.90
2022-11-18T22:33:35.729Z,24.90
2022-11-18T22:36:07.884Z,23.90
2022-11-18T22:38:38.790Z,21.80
2022-11-18T22:41:31.752Z,22.90
2022-11-18T22:44:06.994Z,18.80
2022-11-18T22:46:39.052Z,23.40
2022-11-18T22:49:10.289Z,22.40
2022-11-18T22:51:41.480Z,26.00
2022-11-18T22:57:03.382Z,20.30
2022-11-18T22:59:33.756Z,21.40
2022-11-18T23:02:04.640Z,21.80
2022-11-18T23:04:35.071Z,24.30
2022-11-18T23:07:05.750Z,20.80
2022-11-18T23:09:36.339Z,21.60
2022-11-18T23:12:24.723Z,23.40
2022-11-18T23:14:55.202Z,22.40
2022-11-18T23:17:26.106Z,21.90
2022-11-18T23:19:56.466Z,24.90
2022-11-18T23:22:27.556Z,21.70
2022-11-18T23:24:57.904Z,19.90
2022-11-18T23:27:28.891Z,21.40
2022-11-18T23:29:59.401Z,20.20
2022-11-18T23:32:30.639Z,19.40
2022-11-18T23:35:01.172Z,21.00
2022-11-18T23:37:32.216Z,20.50
2022-11-18T23:40:02.841Z,27.30
2022-11-18T23:42:33.594Z,21.70
2022-11-18T23:45:05.552Z,21.40
2022-11-18T23:47:38.828Z,20.50
2022-11-18T23:50:10.240Z,23.20
2022-11-18T23:52:42.144Z,20.40
2022-11-18T23:55:12.670Z,22.40
2022-11-18T23:57:43.566Z,23.10
